sensor_id;sensor_type;location;lat;lon;timestamp;temperature;humidity
8872;DHT22;4472;52.092;9.820;2023-12-07T00:00:30;3.40;99.90
8872;DHT22;4472;52.092;9.820;2023-12-07T00:03:20;3.40;99.90
8872;DHT22;4472;52.092;9.820;2023-12-07T00:06:09;3.40;99.90
8872;DHT22;4472;52.092;9.820;2023-12-07T00:12:39;3.40;99.90
8872;DHT22;4472;52.092;9.820;2023-12-07T00:15:27;3.50;99.90
8872;DHT22;4472;52.092;9.820;2023-12-07T00:18:14;3.40;99.90
8872;DHT22;4472;52.092;9.820;2023-12-07T00:21:04;3.40;99.90
8872;DHT22;4472;52.092;9.820;2023-12-07T00:23:51;3.30;99.90
8872;DHT22;4472;52.092;9.820;2023-12-07T00:26:40;3.30;99.90
8872;DHT22;4472;52.092;9.820;2023-12-07T00:29:27;3.30;99.90
8872;DHT22;4472;52.092;9.820;2023-12-07T00:32:14;3.40;99.90
8872;DHT22;4472;52.092;9.820;2023-12-07T00:35:02;3.30;99.90
8872;DHT22;4472;52.092;9.820;2023-12-07T00:37:51;3.30;99.90
8872;DHT22;4472;52.092;9.820;2023-12-07T00:40:38;3.40;99.90
8872;DHT22;4472;52.092;9.820;2023-12-07T00:43:26;3.30;99.90
8872;DHT22;4472;52.092;9.820;2023-12-07T00:46:13;3.40;99.90
8872;DHT22;4472;52.092;9.820;2023-12-07T00:49:00;3.40;99.90
8872;DHT22;4472;52.092;9.820;2023-12-07T00:51:48;3.50;99.90
8872;DHT22;4472;52.092;9.820;2023-12-07T00:54:37;3.50;99.90
8872;DHT22;4472;52.092;9.820;2023-12-07T00:57:25;3.60;99.90
8872;DHT22;4472;52.092;9.820;2023-12-07T01:00:13;3.40;99.90
8872;DHT22;4472;52.092;9.820;2023-12-07T01:03:01;3.40;99.90
8872;DHT22;4472;52.092;9.820;2023-12-07T01:05:48;3.40;99.90
8872;DHT22;4472;52.092;9.820;2023-12-07T01:08:35;3.40;99.90
8872;DHT22;4472;52.092;9.820;2023-12-07T01:11:25;3.40;99.90
8872;DHT22;4472;52.092;9.820;2023-12-07T01:14:12;3.30;99.90
8872;DHT22;4472;52.092;9.820;2023-12-07T01:17:00;3.70;99.90
8872;DHT22;4472;52.092;9.820;2023-12-07T01:19:48;3.50;99.90
8872;DHT22;4472;52.092;9.820;2023-12-07T01:22:35;3.40;99.90
8872;DHT22;4472;52.092;9.820;2023-12-07T01:25:23;3.50;99.90
8872;DHT22;4472;52.092;9.820;2023-12-07T01:28:11;3.50;99.90
8872;DHT22;4472;52.092;9.820;2023-12-07T01:30:58;3.40;99.90
8872;DHT22;4472;52.092;9.820;2023-12-07T01:33:47;3.50;99.90
8872;DHT22;4472;52.092;9.820;2023-12-07T01:36:34;3.60;99.90
8872;DHT22;4472;52.092;9.820;2023-12-07T01:39:21;3.50;99.90
8872;DHT22;4472;52.092;9.820;2023-12-07T01:42:09;3.50;99.90
8872;DHT22;4472;52.092;9.820;2023-12-07T01:44:59;3.50;99.90
8872;DHT22;4472;52.092;9.820;2023-12-07T01:47:47;3.50;99.90
8872;DHT22;4472;52.092;9.820;2023-12-07T01:50:34;3.60;99.90
8872;DHT22;4472;52.092;9.820;2023-12-07T01:53:23;3.50;99.90
8872;DHT22;4472;52.092;9.820;2023-12-07T01:56:12;3.60;99.90
8872;DHT22;4472;52.092;9.820;2023-12-07T01:58:59;3.80;99.90
8872;DHT22;4472;52.092;9.820;2023-12-07T02:01:47;3.60;99.90
8872;DHT22;4472;52.092;9.820;2023-12-07T02:04:35;3.60;99.90
8872;DHT22;4472;52.092;9.820;2023-12-07T02:07:23;3.70;99.90
8872;DHT22;4472;52.092;9.820;2023-12-07T02:10:10;3.60;99.90
8872;DHT22;4472;52.092;9.820;2023-12-07T02:12:59;2.90;99.90
8872;DHT22;4472;52.092;9.820;2023-12-07T02:15:47;3.70;99.90
8872;DHT22;4472;52.092;9.820;2023-12-07T02:18:40;3.80;99.90
8872;DHT22;4472;52.092;9.820;2023-12-07T02:21:35;3.70;99.90
8872;DHT22;4472;52.092;9.820;2023-12-07T02:24:27;3.70;99.90
8872;DHT22;4472;52.092;9.820;2023-12-07T02:27:34;3.60;99.90
8872;DHT22;4472;52.092;9.820;2023-12-07T02:30:21;3.60;99.90
8872;DHT22;4472;52.092;9.820;2023-12-07T02:33:09;3.50;99.90
8872;DHT22;4472;52.092;9.820;2023-12-07T02:35:56;3.40;99.90
8872;DHT22;4472;52.092;9.820;2023-12-07T02:38:44;3.60;99.90
8872;DHT22;4472;52.092;9.820;2023-12-07T02:41:34;3.80;99.90
8872;DHT22;4472;52.092;9.820;2023-12-07T02:44:23;3.60;99.90
8872;DHT22;4472;52.092;9.820;2023-12-07T02:47:11;3.70;99.90
8872;DHT22;4472;52.092;9.820;2023-12-07T02:49:59;3.60;99.90
8872;DHT22;4472;52.092;9.820;2023-12-07T02:52:47;3.50;99.90
8872;DHT22;4472;52.092;9.820;2023-12-07T02:55:34;3.80;99.90
8872;DHT22;4472;52.092;9.820;2023-12-07T02:58:21;3.50;99.90
8872;DHT22;4472;52.092;9.820;2023-12-07T03:01:10;3.60;99.90
8872;DHT22;4472;52.092;9.820;2023-12-07T03:03:57;3.50;99.90
8872;DHT22;4472;52.092;9.820;2023-12-07T03:06:44;3.50;99.90
8872;DHT22;4472;52.092;9.820;2023-12-07T03:09:32;3.50;99.90
8872;DHT22;4472;52.092;9.820;2023-12-07T03:12:19;3.50;99.90
8872;DHT22;4472;52.092;9.820;2023-12-07T03:15:07;3.60;99.90
8872;DHT22;4472;52.092;9.820;2023-12-07T03:17:57;3.50;99.90
8872;DHT22;4472;52.092;9.820;2023-12-07T03:20:44;3.50;99.90
8872;DHT22;4472;52.092;9.820;2023-12-07T03:23:32;3.50;99.90
8872;DHT22;4472;52.092;9.820;2023-12-07T03:26:21;3.50;99.90
8872;DHT22;4472;52.092;9.820;2023-12-07T03:29:08;3.40;99.90
8872;DHT22;4472;52.092;9.820;2023-12-07T03:31:56;3.70;99.90
8872;DHT22;4472;52.092;9.820;2023-12-07T03:34:45;3.70;99.90
8872;DHT22;4472;52.092;9.820;2023-12-07T03:37:32;3.40;99.90
8872;DHT22;4472;52.092;9.820;2023-12-07T03:40:19;3.40;99.90
8872;DHT22;4472;52.092;9.820;2023-12-07T03:43:06;3.40;99.90
8872;DHT22;4472;52.092;9.820;2023-12-07T03:45:54;3.40;99.90
8872;DHT22;4472;52.092;9.820;2023-12-07T03:48:41;3.40;99.90
8872;DHT22;4472;52.092;9.820;2023-12-07T03:51:30;3.50;99.90
8872;DHT22;4472;52.092;9.820;2023-12-07T03:54:18;3.40;99.90
8872;DHT22;4472;52.092;9.820;2023-12-07T03:57:05;3.60;99.90
8872;DHT22;4472;52.092;9.820;2023-12-07T03:59:53;3.40;99.90
8872;DHT22;4472;52.092;9.820;2023-12-07T04:02:40;3.30;99.90
8872;DHT22;4472;52.092;9.820;2023-12-07T04:05:27;3.40;99.90
8872;DHT22;4472;52.092;9.820;2023-12-07T04:08:16;3.30;99.90
8872;DHT22;4472;52.092;9.820;2023-12-07T04:11:03;3.30;99.90
8872;DHT22;4472;52.092;9.820;2023-12-07T04:13:51;3.40;99.90
8872;DHT22;4472;52.092;9.820;2023-12-07T04:16:38;4.00;99.90
8872;DHT22;4472;52.092;9.820;2023-12-07T04:19:25;3.30;99.90
8872;DHT22;4472;52.092;9.820;2023-12-07T04:22:12;3.30;99.90
8872;DHT22;4472;52.092;9.820;2023-12-07T04:25:02;3.50;99.90
8872;DHT22;4472;52.092;9.820;2023-12-07T04:27:49;3.50;99.90
8872;DHT22;4472;52.092;9.820;2023-12-07T04:30:36;3.50;99.90
8872;DHT22;4472;52.092;9.820;2023-12-07T04:33:24;3.50;99.90
8872;DHT22;4472;52.092;9.820;2023-12-07T04:36:13;3.40;99.90
8872;DHT22;4472;52.092;9.820;2023-12-07T04:39:00;3.50;99.90
8872;DHT22;4472;52.092;9.820;2023-12-07T04:41:50;3.60;99.90
8872;DHT22;4472;52.092;9.820;2023-12-07T04:44:38;3.60;99.90
8872;DHT22;4472;52.092;9.820;2023-12-07T04:47:25;3.60;99.90
8872;DHT22;4472;52.092;9.820;2023-12-07T04:50:13;3.60;99.90
8872;DHT22;4472;52.092;9.820;2023-12-07T04:53:00;3.60;99.90
8872;DHT22;4472;52.092;9.820;2023-12-07T04:55:48;3.60;99.90
8872;DHT22;4472;52.092;9.820;2023-12-07T04:58:37;3.90;99.90
8872;DHT22;4472;52.092;9.820;2023-12-07T05:01:24;3.60;99.90
8872;DHT22;4472;52.092;9.820;2023-12-07T05:04:12;3.60;99.90
8872;DHT22;4472;52.092;9.820;2023-12-07T05:06:59;4.30;99.90
8872;DHT22;4472;52.092;9.820;2023-12-07T05:09:47;4.10;99.90
8872;DHT22;4472;52.092;9.820;2023-12-07T05:12:36;3.70;99.90
8872;DHT22;4472;52.092;9.820;2023-12-07T05:15:25;3.60;99.90
8872;DHT22;4472;52.092;9.820;2023-12-07T05:18:13;3.60;99.90
8872;DHT22;4472;52.092;9.820;2023-12-07T05:21:00;3.60;99.90
8872;DHT22;4472;52.092;9.820;2023-12-07T05:23:48;3.50;99.90
8872;DHT22;4472;52.092;9.820;2023-12-07T05:26:35;3.60;99.90
8872;DHT22;4472;52.092;9.820;2023-12-07T05:29:23;3.60;99.90
8872;DHT22;4472;52.092;9.820;2023-12-07T05:32:11;3.60;99.90
8872;DHT22;4472;52.092;9.820;2023-12-07T05:34:59;3.70;99.90
8872;DHT22;4472;52.092;9.820;2023-12-07T05:37:46;3.70;99.90
8872;DHT22;4472;52.092;9.820;2023-12-07T05:40:33;3.90;99.90
8872;DHT22;4472;52.092;9.820;2023-12-07T05:43:20;3.70;99.90
8872;DHT22;4472;52.092;9.820;2023-12-07T05:46:08;3.90;99.90
8872;DHT22;4472;52.092;9.820;2023-12-07T05:48:56;3.50;99.90
8872;DHT22;4472;52.092;9.820;2023-12-07T05:51:44;3.60;99.90
8872;DHT22;4472;52.092;9.820;2023-12-07T05:54:31;3.60;99.90
8872;DHT22;4472;52.092;9.820;2023-12-07T05:57:18;3.50;99.90
8872;DHT22;4472;52.092;9.820;2023-12-07T06:00:07;3.40;99.90
8872;DHT22;4472;52.092;9.820;2023-12-07T06:02:55;2.70;99.90
8872;DHT22;4472;52.092;9.820;2023-12-07T06:05:44;3.50;99.90
8872;DHT22;4472;52.092;9.820;2023-12-07T06:08:32;4.10;99.90
8872;DHT22;4472;52.092;9.820;2023-12-07T06:11:20;3.30;99.90
8872;DHT22;4472;52.092;9.820;2023-12-07T06:14:07;3.40;99.90
8872;DHT22;4472;52.092;9.820;2023-12-07T06:16:54;3.30;99.90
8872;DHT22;4472;52.092;9.820;2023-12-07T06:19:42;3.30;99.90
8872;DHT22;4472;52.092;9.820;2023-12-07T06:22:30;3.60;99.90
8872;DHT22;4472;52.092;9.820;2023-12-07T06:25:17;3.40;99.90
8872;DHT22;4472;52.092;9.820;2023-12-07T06:28:05;3.40;99.90
8872;DHT22;4472;52.092;9.820;2023-12-07T06:30:52;3.50;99.90
8872;DHT22;4472;52.092;9.820;2023-12-07T06:33:40;3.50;99.90
8872;DHT22;4472;52.092;9.820;2023-12-07T06:36:28;3.40;99.90
8872;DHT22;4472;52.092;9.820;2023-12-07T06:39:17;3.40;99.90
8872;DHT22;4472;52.092;9.820;2023-12-07T06:42:04;3.40;99.90
8872;DHT22;4472;52.092;9.820;2023-12-07T06:44:52;3.40;99.90
8872;DHT22;4472;52.092;9.820;2023-12-07T06:47:39;3.40;99.90
8872;DHT22;4472;52.092;9.820;2023-12-07T06:50:28;3.70;99.90
8872;DHT22;4472;52.092;9.820;2023-12-07T06:53:15;3.50;99.90
8872;DHT22;4472;52.092;9.820;2023-12-07T06:56:06;3.60;99.90
8872;DHT22;4472;52.092;9.820;2023-12-07T06:58:53;3.50;99.90
8872;DHT22;4472;52.092;9.820;2023-12-07T07:01:40;3.40;99.90
8872;DHT22;4472;52.092;9.820;2023-12-07T07:04:27;3.50;99.90
8872;DHT22;4472;52.092;9.820;2023-12-07T07:07:15;3.60;99.90
8872;DHT22;4472;52.092;9.820;2023-12-07T07:10:03;3.50;99.90
8872;DHT22;4472;52.092;9.820;2023-12-07T07:12:52;3.40;99.90
8872;DHT22;4472;52.092;9.820;2023-12-07T07:15:42;3.50;99.90
8872;DHT22;4472;52.092;9.820;2023-12-07T07:18:29;3.40;99.90
8872;DHT22;4472;52.092;9.820;2023-12-07T07:21:17;3.40;99.90
8872;DHT22;4472;52.092;9.820;2023-12-07T07:24:05;3.50;99.90
8872;DHT22;4472;52.092;9.820;2023-12-07T07:26:53;3.50;99.90
8872;DHT22;4472;52.092;9.820;2023-12-07T07:29:41;3.50;99.90
8872;DHT22;4472;52.092;9.820;2023-12-07T07:32:29;3.60;99.90
8872;DHT22;4472;52.092;9.820;2023-12-07T07:35:16;3.60;99.90
8872;DHT22;4472;52.092;9.820;2023-12-07T07:38:04;3.60;99.90
8872;DHT22;4472;52.092;9.820;2023-12-07T07:40:51;3.60;99.90
8872;DHT22;4472;52.092;9.820;2023-12-07T07:43:38;3.60;99.90
8872;DHT22;4472;52.092;9.820;2023-12-07T07:46:26;3.60;99.90
8872;DHT22;4472;52.092;9.820;2023-12-07T07:49:14;3.50;99.90
8872;DHT22;4472;52.092;9.820;2023-12-07T07:52:01;3.90;99.90
8872;DHT22;4472;52.092;9.820;2023-12-07T07:54:49;3.50;99.90
8872;DHT22;4472;52.092;9.820;2023-12-07T07:57:36;3.60;99.90
8872;DHT22;4472;52.092;9.820;2023-12-07T08:00:23;3.60;99.90
8872;DHT22;4472;52.092;9.820;2023-12-07T08:03:13;3.70;99.90
8872;DHT22;4472;52.092;9.820;2023-12-07T08:06:01;3.60;99.90
8872;DHT22;4472;52.092;9.820;2023-12-07T08:08:49;3.80;99.90
8872;DHT22;4472;52.092;9.820;2023-12-07T08:11:37;3.70;99.90
8872;DHT22;4472;52.092;9.820;2023-12-07T08:14:25;3.70;99.90
8872;DHT22;4472;52.092;9.820;2023-12-07T08:17:14;3.80;99.90
8872;DHT22;4472;52.092;9.820;2023-12-07T08:20:04;3.80;99.90
8872;DHT22;4472;52.092;9.820;2023-12-07T08:22:52;3.80;99.90
8872;DHT22;4472;52.092;9.820;2023-12-07T08:25:40;3.80;99.90
8872;DHT22;4472;52.092;9.820;2023-12-07T08:28:28;3.90;99.90
8872;DHT22;4472;52.092;9.820;2023-12-07T08:31:16;3.90;99.90
8872;DHT22;4472;52.092;9.820;2023-12-07T08:34:03;3.90;99.90
8872;DHT22;4472;52.092;9.820;2023-12-07T08:37:14;3.90;99.90
8872;DHT22;4472;52.092;9.820;2023-12-07T08:40:02;3.90;99.90
8872;DHT22;4472;52.092;9.820;2023-12-07T08:42:51;3.90;99.90
8872;DHT22;4472;52.092;9.820;2023-12-07T08:45:38;3.90;99.90
8872;DHT22;4472;52.092;9.820;2023-12-07T08:48:26;3.90;99.90
8872;DHT22;4472;52.092;9.820;2023-12-07T08:51:13;3.90;99.90
8872;DHT22;4472;52.092;9.820;2023-12-07T08:54:02;4.00;99.90
8872;DHT22;4472;52.092;9.820;2023-12-07T08:56:49;4.00;99.90
8872;DHT22;4472;52.092;9.820;2023-12-07T08:59:36;4.00;99.90
8872;DHT22;4472;52.092;9.820;2023-12-07T09:02:24;4.00;99.90
8872;DHT22;4472;52.092;9.820;2023-12-07T09:05:12;4.10;99.90
8872;DHT22;4472;52.092;9.820;2023-12-07T09:08:00;4.10;99.90
8872;DHT22;4472;52.092;9.820;2023-12-07T09:10:49;4.10;99.90
8872;DHT22;4472;52.092;9.820;2023-12-07T09:13:37;4.20;99.90
8872;DHT22;4472;52.092;9.820;2023-12-07T09:16:24;4.30;99.90
8872;DHT22;4472;52.092;9.820;2023-12-07T09:19:13;4.30;99.90
8872;DHT22;4472;52.092;9.820;2023-12-07T09:22:00;4.20;99.90
8872;DHT22;4472;52.092;9.820;2023-12-07T09:24:47;4.30;99.90
8872;DHT22;4472;52.092;9.820;2023-12-07T09:27:36;4.50;99.90
8872;DHT22;4472;52.092;9.820;2023-12-07T09:30:23;4.40;99.90
8872;DHT22;4472;52.092;9.820;2023-12-07T09:33:10;4.40;99.90
8872;DHT22;4472;52.092;9.820;2023-12-07T09:35:57;4.40;99.90
8872;DHT22;4472;52.092;9.820;2023-12-07T09:38:45;4.60;99.90
8872;DHT22;4472;52.092;9.820;2023-12-07T09:41:32;4.40;99.90
8872;DHT22;4472;52.092;9.820;2023-12-07T09:44:21;4.50;99.90
8872;DHT22;4472;52.092;9.820;2023-12-07T09:47:09;4.60;99.90
8872;DHT22;4472;52.092;9.820;2023-12-07T09:49:57;4.50;99.90
8872;DHT22;4472;52.092;9.820;2023-12-07T09:52:47;4.70;99.90
8872;DHT22;4472;52.092;9.820;2023-12-07T09:55:35;4.50;99.90
8872;DHT22;4472;52.092;9.820;2023-12-07T09:58:22;4.60;99.90
8872;DHT22;4472;52.092;9.820;2023-12-07T10:01:11;4.70;99.90
8872;DHT22;4472;52.092;9.820;2023-12-07T10:04:17;4.60;99.90
8872;DHT22;4472;52.092;9.820;2023-12-07T10:07:05;4.60;99.90
8872;DHT22;4472;52.092;9.820;2023-12-07T10:09:54;4.60;99.90
8872;DHT22;4472;52.092;9.820;2023-12-07T10:12:47;4.80;99.90
8872;DHT22;4472;52.092;9.820;2023-12-07T10:15:34;5.00;99.90
8872;DHT22;4472;52.092;9.820;2023-12-07T10:18:24;4.70;99.90
8872;DHT22;4472;52.092;9.820;2023-12-07T10:21:12;4.70;99.90
8872;DHT22;4472;52.092;9.820;2023-12-07T10:23:59;4.70;99.90
8872;DHT22;4472;52.092;9.820;2023-12-07T10:26:49;4.70;99.90
8872;DHT22;4472;52.092;9.820;2023-12-07T10:29:37;4.70;99.90
8872;DHT22;4472;52.092;9.820;2023-12-07T10:32:25;4.80;99.90
8872;DHT22;4472;52.092;9.820;2023-12-07T10:35:14;5.10;99.90
8872;DHT22;4472;52.092;9.820;2023-12-07T10:38:01;4.70;99.90
8872;DHT22;4472;52.092;9.820;2023-12-07T10:40:50;4.80;99.90
8872;DHT22;4472;52.092;9.820;2023-12-07T10:43:48;4.80;99.90
8872;DHT22;4472;52.092;9.820;2023-12-07T10:46:36;4.80;99.90
8872;DHT22;4472;52.092;9.820;2023-12-07T10:49:25;4.90;99.90
8872;DHT22;4472;52.092;9.820;2023-12-07T10:52:16;4.90;99.90
8872;DHT22;4472;52.092;9.820;2023-12-07T10:55:13;5.50;99.90
8872;DHT22;4472;52.092;9.820;2023-12-07T10:58:03;5.00;99.90
8872;DHT22;4472;52.092;9.820;2023-12-07T11:00:53;5.00;99.90
8872;DHT22;4472;52.092;9.820;2023-12-07T11:03:41;5.10;99.90
8872;DHT22;4472;52.092;9.820;2023-12-07T11:06:30;5.10;99.90
8872;DHT22;4472;52.092;9.820;2023-12-07T11:09:22;5.10;99.90
8872;DHT22;4472;52.092;9.820;2023-12-07T11:12:14;5.20;99.90
8872;DHT22;4472;52.092;9.820;2023-12-07T11:15:05;5.20;99.90
8872;DHT22;4472;52.092;9.820;2023-12-07T11:17:54;5.20;99.90
8872;DHT22;4472;52.092;9.820;2023-12-07T11:20:42;5.10;99.90
8872;DHT22;4472;52.092;9.820;2023-12-07T11:23:31;5.30;99.90
8872;DHT22;4472;52.092;9.820;2023-12-07T11:26:22;5.30;99.90
8872;DHT22;4472;52.092;9.820;2023-12-07T11:29:09;5.30;99.90
8872;DHT22;4472;52.092;9.820;2023-12-07T11:31:58;5.40;99.90
8872;DHT22;4472;52.092;9.820;2023-12-07T11:34:47;5.40;99.90
8872;DHT22;4472;52.092;9.820;2023-12-07T11:38:00;5.50;99.90
8872;DHT22;4472;52.092;9.820;2023-12-07T11:40:47;5.60;99.90
8872;DHT22;4472;52.092;9.820;2023-12-07T11:43:42;5.50;99.90
8872;DHT22;4472;52.092;9.820;2023-12-07T11:46:32;5.60;99.90
8872;DHT22;4472;52.092;9.820;2023-12-07T11:49:21;5.60;99.90
8872;DHT22;4472;52.092;9.820;2023-12-07T11:52:15;5.60;99.90
8872;DHT22;4472;52.092;9.820;2023-12-07T11:55:03;5.70;99.90
8872;DHT22;4472;52.092;9.820;2023-12-07T11:57:51;5.70;99.90
8872;DHT22;4472;52.092;9.820;2023-12-07T12:00:39;5.70;99.90
8872;DHT22;4472;52.092;9.820;2023-12-07T12:03:27;5.80;99.90
8872;DHT22;4472;52.092;9.820;2023-12-07T12:06:15;5.80;99.90
8872;DHT22;4472;52.092;9.820;2023-12-07T12:09:02;5.80;99.90
8872;DHT22;4472;52.092;9.820;2023-12-07T12:11:49;5.90;99.90
8872;DHT22;4472;52.092;9.820;2023-12-07T12:14:36;5.80;99.90
8872;DHT22;4472;52.092;9.820;2023-12-07T12:17:25;6.00;99.90
8872;DHT22;4472;52.092;9.820;2023-12-07T12:20:14;6.00;99.90
8872;DHT22;4472;52.092;9.820;2023-12-07T12:23:03;5.90;99.90
8872;DHT22;4472;52.092;9.820;2023-12-07T12:25:50;5.90;99.90
8872;DHT22;4472;52.092;9.820;2023-12-07T12:28:38;5.90;99.90
8872;DHT22;4472;52.092;9.820;2023-12-07T12:31:28;5.90;99.90
8872;DHT22;4472;52.092;9.820;2023-12-07T12:34:17;5.90;99.90
8872;DHT22;4472;52.092;9.820;2023-12-07T12:37:07;5.80;99.90
8872;DHT22;4472;52.092;9.820;2023-12-07T12:39:55;5.80;99.90
8872;DHT22;4472;52.092;9.820;2023-12-07T12:42:42;5.60;99.90
8872;DHT22;4472;52.092;9.820;2023-12-07T12:45:30;5.70;99.90
8872;DHT22;4472;52.092;9.820;2023-12-07T12:48:18;5.80;99.90
8872;DHT22;4472;52.092;9.820;2023-12-07T12:51:13;5.80;99.90
8872;DHT22;4472;52.092;9.820;2023-12-07T12:54:01;5.80;99.90
8872;DHT22;4472;52.092;9.820;2023-12-07T12:56:48;5.80;99.90
8872;DHT22;4472;52.092;9.820;2023-12-07T12:59:36;5.80;99.90
8872;DHT22;4472;52.092;9.820;2023-12-07T13:02:23;5.80;99.90
8872;DHT22;4472;52.092;9.820;2023-12-07T13:05:10;5.80;99.90
8872;DHT22;4472;52.092;9.820;2023-12-07T13:07:59;5.90;99.90
8872;DHT22;4472;52.092;9.820;2023-12-07T13:10:46;6.00;99.90
8872;DHT22;4472;52.092;9.820;2023-12-07T13:13:34;5.80;99.90
8872;DHT22;4472;52.092;9.820;2023-12-07T13:16:21;5.90;99.90
8872;DHT22;4472;52.092;9.820;2023-12-07T13:19:08;6.10;99.90
8872;DHT22;4472;52.092;9.820;2023-12-07T13:21:55;6.20;99.90
8872;DHT22;4472;52.092;9.820;2023-12-07T13:24:47;6.30;99.90
8872;DHT22;4472;52.092;9.820;2023-12-07T13:27:35;6.30;99.90
8872;DHT22;4472;52.092;9.820;2023-12-07T13:30:23;6.30;99.90
8872;DHT22;4472;52.092;9.820;2023-12-07T13:33:11;6.40;99.90
8872;DHT22;4472;52.092;9.820;2023-12-07T13:35:58;6.40;99.90
8872;DHT22;4472;52.092;9.820;2023-12-07T13:38:47;6.50;99.90
8872;DHT22;4472;52.092;9.820;2023-12-07T13:41:35;6.50;99.90
8872;DHT22;4472;52.092;9.820;2023-12-07T13:44:23;6.50;99.90
8872;DHT22;4472;52.092;9.820;2023-12-07T13:47:10;6.30;99.90
8872;DHT22;4472;52.092;9.820;2023-12-07T13:49:58;6.20;99.90
8872;DHT22;4472;52.092;9.820;2023-12-07T13:52:45;5.90;99.90
8872;DHT22;4472;52.092;9.820;2023-12-07T13:55:33;6.70;99.90
8872;DHT22;4472;52.092;9.820;2023-12-07T13:58:23;5.70;99.90
8872;DHT22;4472;52.092;9.820;2023-12-07T14:01:10;5.80;99.90
8872;DHT22;4472;52.092;9.820;2023-12-07T14:03:57;5.60;99.90
8872;DHT22;4472;52.092;9.820;2023-12-07T14:06:44;5.50;99.90
8872;DHT22;4472;52.092;9.820;2023-12-07T14:09:32;5.40;99.90
8872;DHT22;4472;52.092;9.820;2023-12-07T14:12:19;5.30;99.90
8872;DHT22;4472;52.092;9.820;2023-12-07T14:15:09;5.40;99.90
8872;DHT22;4472;52.092;9.820;2023-12-07T14:17:56;5.20;99.90
8872;DHT22;4472;52.092;9.820;2023-12-07T14:20:45;5.00;99.90
8872;DHT22;4472;52.092;9.820;2023-12-07T14:23:32;5.00;99.90
8872;DHT22;4472;52.092;9.820;2023-12-07T14:26:19;4.80;99.90
8872;DHT22;4472;52.092;9.820;2023-12-07T14:29:06;4.80;99.90
8872;DHT22;4472;52.092;9.820;2023-12-07T14:31:56;4.80;99.90
8872;DHT22;4472;52.092;9.820;2023-12-07T14:34:43;4.50;99.90
8872;DHT22;4472;52.092;9.820;2023-12-07T14:37:30;4.40;99.90
8872;DHT22;4472;52.092;9.820;2023-12-07T14:40:18;4.30;99.90
8872;DHT22;4472;52.092;9.820;2023-12-07T14:43:05;4.30;99.90
8872;DHT22;4472;52.092;9.820;2023-12-07T14:45:52;4.30;99.90
8872;DHT22;4472;52.092;9.820;2023-12-07T14:48:40;5.00;99.90
8872;DHT22;4472;52.092;9.820;2023-12-07T14:51:28;4.10;99.90
8872;DHT22;4472;52.092;9.820;2023-12-07T14:54:15;4.00;99.90
8872;DHT22;4472;52.092;9.820;2023-12-07T14:57:03;3.90;99.90
8872;DHT22;4472;52.092;9.820;2023-12-07T14:59:54;3.90;99.90
8872;DHT22;4472;52.092;9.820;2023-12-07T15:02:43;3.90;99.90
8872;DHT22;4472;52.092;9.820;2023-12-07T15:05:32;3.80;99.90
8872;DHT22;4472;52.092;9.820;2023-12-07T15:08:19;3.80;99.90
8872;DHT22;4472;52.092;9.820;2023-12-07T15:11:06;3.70;99.90
8872;DHT22;4472;52.092;9.820;2023-12-07T15:13:53;3.60;99.90
8872;DHT22;4472;52.092;9.820;2023-12-07T15:16:40;3.50;99.90
8872;DHT22;4472;52.092;9.820;2023-12-07T15:19:28;3.40;99.90
8872;DHT22;4472;52.092;9.820;2023-12-07T15:22:16;3.40;99.90
8872;DHT22;4472;52.092;9.820;2023-12-07T15:25:04;3.30;99.90
8872;DHT22;4472;52.092;9.820;2023-12-07T15:27:51;3.30;99.90
8872;DHT22;4472;52.092;9.820;2023-12-07T15:30:38;3.30;99.90
8872;DHT22;4472;52.092;9.820;2023-12-07T15:33:25;3.50;99.90
8872;DHT22;4472;52.092;9.820;2023-12-07T15:36:12;3.30;99.90
8872;DHT22;4472;52.092;9.820;2023-12-07T15:39:01;3.30;99.90
8872;DHT22;4472;52.092;9.820;2023-12-07T15:41:48;3.30;99.90
8872;DHT22;4472;52.092;9.820;2023-12-07T15:44:35;3.30;99.90
8872;DHT22;4472;52.092;9.820;2023-12-07T15:47:23;3.30;99.90
8872;DHT22;4472;52.092;9.820;2023-12-07T15:50:10;3.30;99.90
8872;DHT22;4472;52.092;9.820;2023-12-07T15:52:57;3.20;99.90
8872;DHT22;4472;52.092;9.820;2023-12-07T15:55:46;3.20;99.90
8872;DHT22;4472;52.092;9.820;2023-12-07T15:58:33;3.10;99.90
8872;DHT22;4472;52.092;9.820;2023-12-07T16:01:20;3.10;99.90
8872;DHT22;4472;52.092;9.820;2023-12-07T16:04:07;3.10;99.90
8872;DHT22;4472;52.092;9.820;2023-12-07T16:06:55;3.00;99.90
8872;DHT22;4472;52.092;9.820;2023-12-07T16:09:42;3.00;99.90
8872;DHT22;4472;52.092;9.820;2023-12-07T16:12:30;3.00;99.90
8872;DHT22;4472;52.092;9.820;2023-12-07T16:15:17;2.90;99.90
8872;DHT22;4472;52.092;9.820;2023-12-07T16:18:05;2.90;99.90
8872;DHT22;4472;52.092;9.820;2023-12-07T16:20:54;2.80;99.90
8872;DHT22;4472;52.092;9.820;2023-12-07T16:23:41;2.80;99.90
8872;DHT22;4472;52.092;9.820;2023-12-07T16:26:28;2.80;99.90
8872;DHT22;4472;52.092;9.820;2023-12-07T16:29:16;2.80;99.90
8872;DHT22;4472;52.092;9.820;2023-12-07T16:32:04;2.70;99.90
8872;DHT22;4472;52.092;9.820;2023-12-07T16:34:51;2.60;99.90
8872;DHT22;4472;52.092;9.820;2023-12-07T16:37:38;2.50;99.90
8872;DHT22;4472;52.092;9.820;2023-12-07T16:40:26;2.50;99.90
8872;DHT22;4472;52.092;9.820;2023-12-07T16:43:13;2.40;99.90
8872;DHT22;4472;52.092;9.820;2023-12-07T16:46:02;2.10;99.90
8872;DHT22;4472;52.092;9.820;2023-12-07T16:48:49;2.20;99.90
8872;DHT22;4472;52.092;9.820;2023-12-07T16:51:36;2.10;99.90
8872;DHT22;4472;52.092;9.820;2023-12-07T16:54:24;2.10;99.90
8872;DHT22;4472;52.092;9.820;2023-12-07T16:57:11;2.10;99.90
8872;DHT22;4472;52.092;9.820;2023-12-07T16:59:59;2.10;99.90
8872;DHT22;4472;52.092;9.820;2023-12-07T17:02:47;2.20;99.90
8872;DHT22;4472;52.092;9.820;2023-12-07T17:05:35;2.20;99.90
8872;DHT22;4472;52.092;9.820;2023-12-07T17:08:22;2.20;99.90
8872;DHT22;4472;52.092;9.820;2023-12-07T17:11:09;2.20;99.90
8872;DHT22;4472;52.092;9.820;2023-12-07T17:13:57;2.10;99.90
8872;DHT22;4472;52.092;9.820;2023-12-07T17:16:44;2.20;99.90
8872;DHT22;4472;52.092;9.820;2023-12-07T17:19:32;2.30;99.90
8872;DHT22;4472;52.092;9.820;2023-12-07T17:22:19;2.40;99.90
8872;DHT22;4472;52.092;9.820;2023-12-07T17:25:07;2.30;99.90
8872;DHT22;4472;52.092;9.820;2023-12-07T17:27:54;2.20;99.90
8872;DHT22;4472;52.092;9.820;2023-12-07T17:30:41;2.20;99.90
8872;DHT22;4472;52.092;9.820;2023-12-07T17:33:29;2.20;99.90
8872;DHT22;4472;52.092;9.820;2023-12-07T17:36:17;2.20;99.90
8872;DHT22;4472;52.092;9.820;2023-12-07T17:39:04;2.10;99.90
8872;DHT22;4472;52.092;9.820;2023-12-07T17:41:52;2.10;99.90
8872;DHT22;4472;52.092;9.820;2023-12-07T17:44:39;2.10;99.90
8872;DHT22;4472;52.092;9.820;2023-12-07T17:47:26;2.10;99.90
8872;DHT22;4472;52.092;9.820;2023-12-07T17:50:13;2.10;99.90
8872;DHT22;4472;52.092;9.820;2023-12-07T17:53:02;2.10;99.90
8872;DHT22;4472;52.092;9.820;2023-12-07T17:55:49;2.00;99.90
8872;DHT22;4472;52.092;9.820;2023-12-07T17:58:36;2.10;99.90
8872;DHT22;4472;52.092;9.820;2023-12-07T18:01:23;2.00;99.90
8872;DHT22;4472;52.092;9.820;2023-12-07T18:04:11;2.10;99.90
8872;DHT22;4472;52.092;9.820;2023-12-07T18:06:59;2.00;99.90
8872;DHT22;4472;52.092;9.820;2023-12-07T18:09:47;2.00;99.90
8872;DHT22;4472;52.092;9.820;2023-12-07T18:12:34;2.10;99.90
8872;DHT22;4472;52.092;9.820;2023-12-07T18:15:22;2.00;99.90
8872;DHT22;4472;52.092;9.820;2023-12-07T18:18:09;2.00;99.90
8872;DHT22;4472;52.092;9.820;2023-12-07T18:20:56;1.90;99.90
8872;DHT22;4472;52.092;9.820;2023-12-07T18:23:43;1.90;99.90
8872;DHT22;4472;52.092;9.820;2023-12-07T18:26:32;1.90;99.90
8872;DHT22;4472;52.092;9.820;2023-12-07T18:29:20;1.90;99.90
8872;DHT22;4472;52.092;9.820;2023-12-07T18:32:09;1.90;99.90
8872;DHT22;4472;52.092;9.820;2023-12-07T18:34:57;1.80;99.90
8872;DHT22;4472;52.092;9.820;2023-12-07T18:37:45;1.90;99.90